sensor_id;sensor_type;location;lat;lon;timestamp;pressure;altitude;pressure_sealevel;temperature;humidity
12172;BME280;6149;52.418;13.668;2022-07-18T00:02:19;102077.63;;;14.36;77.97
12172;BME280;6149;52.418;13.668;2022-07-18T00:04:47;102083.03;;;14.34;77.95
12172;BME280;6149;52.418;13.668;2022-07-18T00:07:14;102091.81;;;14.36;78.20
12172;BME280;6149;52.418;13.668;2022-07-18T00:09:41;102093.53;;;14.37;78.59
12172;BME280;6149;52.418;13.668;2022-07-18T00:12:10;102098.88;;;14.37;79.11
12172;BME280;6149;52.418;13.668;2022-07-18T00:14:37;102094.47;;;14.36;79.44
12172;BME280;6149;52.418;13.668;2022-07-18T00:17:06;102094.53;;;14.35;80.06
12172;BME280;6149;52.418;13.668;2022-07-18T00:19:33;102096.41;;;14.33;80.23
12172;BME280;6149;52.418;13.668;2022-07-18T00:22:01;102092.81;;;14.34;80.09
12172;BME280;6149;52.418;13.668;2022-07-18T00:24:28;102083.97;;;14.33;80.36
12172;BME280;6149;52.418;13.668;2022-07-18T00:26:57;102079.50;;;14.34;80.83
12172;BME280;6149;52.418;13.668;2022-07-18T00:29:23;102088.34;;;14.34;81.00
12172;BME280;6149;52.418;13.668;2022-07-18T00:31:50;102089.22;;;14.35;81.22
12172;BME280;6149;52.418;13.668;2022-07-18T00:34:17;102085.56;;;14.37;80.75
12172;BME280;6149;52.418;13.668;2022-07-18T00:36:44;102087.28;;;14.38;81.18
12172;BME280;6149;52.418;13.668;2022-07-18T00:39:12;102077.56;;;14.37;81.42
12172;BME280;6149;52.418;13.668;2022-07-18T00:41:39;102088.09;;;14.41;80.98
12172;BME280;6149;52.418;13.668;2022-07-18T00:44:05;102096.91;;;14.43;81.41
12172;BME280;6149;52.418;13.668;2022-07-18T00:46:32;102092.44;;;14.43;81.51
12172;BME280;6149;52.418;13.668;2022-07-18T00:48:58;102100.50;;;14.42;81.51
12172;BME280;6149;52.418;13.668;2022-07-18T00:51:25;102094.22;;;14.43;81.54
12172;BME280;6149;52.418;13.668;2022-07-18T00:53:52;102101.34;;;14.42;81.56
12172;BME280;6149;52.418;13.668;2022-07-18T00:56:20;102101.38;;;14.41;81.72
12172;BME280;6149;52.418;13.668;2022-07-18T00:58:48;102099.56;;;14.43;81.75
12172;BME280;6149;52.418;13.668;2022-07-18T01:01:14;102101.22;;;14.45;82.05
12172;BME280;6149;52.418;13.668;2022-07-18T01:03:58;102104.75;;;14.46;82.25
12172;BME280;6149;52.418;13.668;2022-07-18T01:06:25;102106.53;;;14.45;82.75
12172;BME280;6149;52.418;13.668;2022-07-18T01:08:52;102103.94;;;14.44;83.08
12172;BME280;6149;52.418;13.668;2022-07-18T01:11:20;102103.94;;;14.44;83.24
12172;BME280;6149;52.418;13.668;2022-07-18T01:13:47;102103.09;;;14.43;83.09
12172;BME280;6149;52.418;13.668;2022-07-18T01:16:14;102096.91;;;14.43;83.23
12172;BME280;6149;52.418;13.668;2022-07-18T01:18:46;102098.72;;;14.41;83.21
12172;BME280;6149;52.418;13.668;2022-07-18T01:21:15;102106.69;;;14.42;83.34
12172;BME280;6149;52.418;13.668;2022-07-18T01:23:42;102104.94;;;14.41;83.46
12172;BME280;6149;52.418;13.668;2022-07-18T01:26:10;102108.47;;;14.42;84.14
12172;BME280;6149;52.418;13.668;2022-07-18T01:28:38;102112.03;;;14.41;84.66
12172;BME280;6149;52.418;13.668;2022-07-18T01:31:05;102107.53;;;14.43;84.48
12172;BME280;6149;52.418;13.668;2022-07-18T01:33:32;102106.78;;;14.39;84.53
12172;BME280;6149;52.418;13.668;2022-07-18T01:35:59;102107.78;;;14.36;84.99
12172;BME280;6149;52.418;13.668;2022-07-18T01:38:28;102106.97;;;14.34;84.85
12172;BME280;6149;52.418;13.668;2022-07-18T01:40:55;102102.72;;;14.30;84.85
12172;BME280;6149;52.418;13.668;2022-07-18T01:43:22;102100.13;;;14.29;85.33
12172;BME280;6149;52.418;13.668;2022-07-18T01:45:49;102098.41;;;14.28;85.42
12172;BME280;6149;52.418;13.668;2022-07-18T01:48:16;102094.69;;;14.32;85.63
12172;BME280;6149;52.418;13.668;2022-07-18T01:50:44;102086.09;;;14.25;86.03
12172;BME280;6149;52.418;13.668;2022-07-18T01:53:11;102087.16;;;14.21;86.17
12172;BME280;6149;52.418;13.668;2022-07-18T01:55:39;102083.78;;;14.18;86.50
12172;BME280;6149;52.418;13.668;2022-07-18T01:58:06;102083.03;;;14.14;86.63
12172;BME280;6149;52.418;13.668;2022-07-18T02:00:32;102086.63;;;14.13;86.48
12172;BME280;6149;52.418;13.668;2022-07-18T02:02:59;102094.78;;;14.10;86.67
12172;BME280;6149;52.418;13.668;2022-07-18T02:05:26;102086.94;;;14.07;86.97
12172;BME280;6149;52.418;13.668;2022-07-18T02:07:52;102087.13;;;14.02;87.42
12172;BME280;6149;52.418;13.668;2022-07-18T02:10:21;102098.03;;;13.96;88.08
12172;BME280;6149;52.418;13.668;2022-07-18T02:12:49;102097.34;;;13.91;88.25
12172;BME280;6149;52.418;13.668;2022-07-18T02:15:16;102094.81;;;13.88;87.78
12172;BME280;6149;52.418;13.668;2022-07-18T02:17:43;102094.03;;;13.86;87.29
12172;BME280;6149;52.418;13.668;2022-07-18T02:20:12;102097.69;;;13.84;87.85
12172;BME280;6149;52.418;13.668;2022-07-18T02:22:40;102105.91;;;13.78;87.99
12172;BME280;6149;52.418;13.668;2022-07-18T02:25:07;102097.41;;;13.69;88.80
12172;BME280;6149;52.418;13.668;2022-07-18T02:27:34;102086.97;;;13.65;88.68
12172;BME280;6149;52.418;13.668;2022-07-18T02:30:03;102092.41;;;13.62;88.57
12172;BME280;6149;52.418;13.668;2022-07-18T02:32:30;102087.34;;;13.56;88.56
12172;BME280;6149;52.418;13.668;2022-07-18T02:34:57;102088.34;;;13.53;88.61
12172;BME280;6149;52.418;13.668;2022-07-18T02:37:23;102091.13;;;13.50;89.34
12172;BME280;6149;52.418;13.668;2022-07-18T02:39:50;102086.06;;;13.44;89.07
12172;BME280;6149;52.418;13.668;2022-07-18T02:42:16;102083.66;;;13.38;89.51
12172;BME280;6149;52.418;13.668;2022-07-18T02:44:43;102075.97;;;13.32;89.94
12172;BME280;6149;52.418;13.668;2022-07-18T02:47:12;102076.16;;;13.27;90.10
12172;BME280;6149;52.418;13.668;2022-07-18T02:49:38;102079.84;;;13.23;90.18
12172;BME280;6149;52.418;13.668;2022-07-18T02:52:06;102075.66;;;13.18;90.37
12172;BME280;6149;52.418;13.668;2022-07-18T02:54:36;102079.38;;;13.12;90.83
12172;BME280;6149;52.418;13.668;2022-07-18T02:57:04;102073.31;;;13.09;90.50
12172;BME280;6149;52.418;13.668;2022-07-18T02:59:32;102077.06;;;13.03;91.19
12172;BME280;6149;52.418;13.668;2022-07-18T03:01:59;102087.97;;;12.97;91.92
12172;BME280;6149;52.418;13.668;2022-07-18T03:04:28;102087.22;;;12.93;91.55
12172;BME280;6149;52.418;13.668;2022-07-18T03:06:54;102090.88;;;12.91;90.71
12172;BME280;6149;52.418;13.668;2022-07-18T03:09:21;102083.00;;;12.88;91.46
12172;BME280;6149;52.418;13.668;2022-07-18T03:11:48;102082.38;;;12.81;92.25
12172;BME280;6149;52.418;13.668;2022-07-18T03:14:14;102073.72;;;12.76;93.16
12172;BME280;6149;52.418;13.668;2022-07-18T03:16:41;102086.25;;;12.72;93.76
12172;BME280;6149;52.418;13.668;2022-07-18T03:19:08;102086.38;;;12.69;93.08
12172;BME280;6149;52.418;13.668;2022-07-18T03:21:36;102090.06;;;12.65;92.85
12172;BME280;6149;52.418;13.668;2022-07-18T03:24:03;102087.47;;;12.64;93.88
12172;BME280;6149;52.418;13.668;2022-07-18T03:26:30;102090.25;;;12.61;94.56
12172;BME280;6149;52.418;13.668;2022-07-18T03:28:56;102086.91;;;12.56;93.33
12172;BME280;6149;52.418;13.668;2022-07-18T03:31:23;102085.19;;;12.55;94.48
12172;BME280;6149;52.418;13.668;2022-07-18T03:33:50;102084.41;;;12.51;94.92
12172;BME280;6149;52.418;13.668;2022-07-18T03:36:16;102089.78;;;12.50;93.92
12172;BME280;6149;52.418;13.668;2022-07-18T03:38:44;102094.28;;;12.48;94.31
12172;BME280;6149;52.418;13.668;2022-07-18T03:41:12;102092.59;;;12.45;94.32
12172;BME280;6149;52.418;13.668;2022-07-18T03:43:39;102087.34;;;12.44;95.07
12172;BME280;6149;52.418;13.668;2022-07-18T03:46:06;102090.06;;;12.42;95.32
12172;BME280;6149;52.418;13.668;2022-07-18T03:48:34;102084.00;;;12.38;95.07
12172;BME280;6149;52.418;13.668;2022-07-18T03:51:02;102077.59;;;12.44;93.58
12172;BME280;6149;52.418;13.668;2022-07-18T03:53:29;102076.03;;;12.38;94.13
12172;BME280;6149;52.418;13.668;2022-07-18T03:55:57;102075.19;;;12.38;94.51
12172;BME280;6149;52.418;13.668;2022-07-18T03:58:24;102073.44;;;12.37;94.99
12172;BME280;6149;52.418;13.668;2022-07-18T04:00:51;102075.22;;;12.36;96.22
12172;BME280;6149;52.418;13.668;2022-07-18T04:03:18;102078.81;;;12.35;97.20
12172;BME280;6149;52.418;13.668;2022-07-18T04:05:44;102080.59;;;12.35;95.97
12172;BME280;6149;52.418;13.668;2022-07-18T04:08:11;102080.53;;;12.36;96.59
12172;BME280;6149;52.418;13.668;2022-07-18T04:10:38;102085.78;;;12.38;96.37
12172;BME280;6149;52.418;13.668;2022-07-18T04:13:08;102083.94;;;12.40;95.79
12172;BME280;6149;52.418;13.668;2022-07-18T04:15:35;102082.16;;;12.41;96.05
12172;BME280;6149;52.418;13.668;2022-07-18T04:18:03;102082.03;;;12.44;95.75
12172;BME280;6149;52.418;13.668;2022-07-18T04:20:30;102082.81;;;12.47;96.10
12172;BME280;6149;52.418;13.668;2022-07-18T04:22:59;102082.69;;;12.50;95.37
12172;BME280;6149;52.418;13.668;2022-07-18T04:25:28;102081.72;;;12.53;95.67
12172;BME280;6149;52.418;13.668;2022-07-18T04:27:59;102084.19;;;12.57;95.87
12172;BME280;6149;52.418;13.668;2022-07-18T04:30:27;102076.97;;;12.61;95.70
12172;BME280;6149;52.418;13.668;2022-07-18T04:32:55;102078.56;;;12.65;95.79
12172;BME280;6149;52.418;13.668;2022-07-18T04:35:23;102085.38;;;12.72;94.90
12172;BME280;6149;52.418;13.668;2022-07-18T04:37:50;102079.91;;;12.77;95.81
12172;BME280;6149;52.418;13.668;2022-07-18T04:40:17;102085.03;;;12.81;95.63
12172;BME280;6149;52.418;13.668;2022-07-18T04:42:44;102084.91;;;12.84;95.23
12172;BME280;6149;52.418;13.668;2022-07-18T04:45:11;102089.19;;;12.88;95.61
12172;BME280;6149;52.418;13.668;2022-07-18T04:47:39;102084.56;;;12.93;95.92
12172;BME280;6149;52.418;13.668;2022-07-18T04:50:06;102089.66;;;12.99;95.65
12172;BME280;6149;52.418;13.668;2022-07-18T04:52:37;102083.88;;;13.10;95.45
12172;BME280;6149;52.418;13.668;2022-07-18T04:55:05;102081.03;;;13.16;95.80
12172;BME280;6149;52.418;13.668;2022-07-18T04:57:33;102068.38;;;13.23;95.63
12172;BME280;6149;52.418;13.668;2022-07-18T05:00:00;102074.22;;;13.31;95.86
12172;BME280;6149;52.418;13.668;2022-07-18T05:02:27;102072.97;;;13.39;95.43
12172;BME280;6149;52.418;13.668;2022-07-18T05:04:55;102080.50;;;13.50;95.45
12172;BME280;6149;52.418;13.668;2022-07-18T05:07:22;102077.41;;;13.61;95.57
12172;BME280;6149;52.418;13.668;2022-07-18T05:09:48;102086.78;;;13.69;94.80
12172;BME280;6149;52.418;13.668;2022-07-18T05:12:15;102081.84;;;13.81;94.59
12172;BME280;6149;52.418;13.668;2022-07-18T05:14:43;102077.00;;;13.90;94.52
12172;BME280;6149;52.418;13.668;2022-07-18T05:17:10;102071.31;;;13.99;94.70
12172;BME280;6149;52.418;13.668;2022-07-18T05:19:36;102067.31;;;14.10;94.51
12172;BME280;6149;52.418;13.668;2022-07-18T05:22:04;102071.19;;;14.21;94.35
12172;BME280;6149;52.418;13.668;2022-07-18T05:24:31;102071.53;;;14.34;93.53
12172;BME280;6149;52.418;13.668;2022-07-18T05:26:57;102076.31;;;14.46;92.96
12172;BME280;6149;52.418;13.668;2022-07-18T05:29:24;102076.53;;;14.60;92.33
12172;BME280;6149;52.418;13.668;2022-07-18T05:31:50;102068.78;;;14.75;92.62
12172;BME280;6149;52.418;13.668;2022-07-18T05:34:17;102070.69;;;14.90;91.98
12172;BME280;6149;52.418;13.668;2022-07-18T05:36:44;102069.03;;;15.06;91.28
12172;BME280;6149;52.418;13.668;2022-07-18T05:39:12;102062.00;;;15.22;89.44
12172;BME280;6149;52.418;13.668;2022-07-18T05:41:38;102062.75;;;15.43;88.23
12172;BME280;6149;52.418;13.668;2022-07-18T05:44:05;102072.13;;;15.69;86.67
12172;BME280;6149;52.418;13.668;2022-07-18T05:46:32;102067.34;;;15.93;84.04
12172;BME280;6149;52.418;13.668;2022-07-18T05:48:58;102067.94;;;16.15;83.73
12172;BME280;6149;52.418;13.668;2022-07-18T05:51:25;102063.88;;;16.41;82.55
12172;BME280;6149;52.418;13.668;2022-07-18T05:53:51;102062.41;;;16.68;80.45
12172;BME280;6149;52.418;13.668;2022-07-18T05:56:19;102061.38;;;17.02;79.75
12172;BME280;6149;52.418;13.668;2022-07-18T05:58:46;102056.66;;;17.37;82.06
12172;BME280;6149;52.418;13.668;2022-07-18T06:01:13;102054.63;;;17.73;79.93
12172;BME280;6149;52.418;13.668;2022-07-18T06:03:42;102056.09;;;18.07;79.18
12172;BME280;6149;52.418;13.668;2022-07-18T06:06:08;102054.78;;;18.42;75.75
12172;BME280;6149;52.418;13.668;2022-07-18T06:08:35;102047.19;;;18.77;72.34
12172;BME280;6149;52.418;13.668;2022-07-18T06:11:01;102044.03;;;19.12;67.92
12172;BME280;6149;52.418;13.668;2022-07-18T06:13:30;102046.50;;;19.42;65.13
12172;BME280;6149;52.418;13.668;2022-07-18T06:15:57;102050.66;;;19.73;64.97
12172;BME280;6149;52.418;13.668;2022-07-18T06:18:23;102053.69;;;20.06;63.01
12172;BME280;6149;52.418;13.668;2022-07-18T06:20:50;102048.69;;;20.40;66.54
12172;BME280;6149;52.418;13.668;2022-07-18T06:23:17;102053.47;;;20.73;61.56
12172;BME280;6149;52.418;13.668;2022-07-18T06:25:43;102049.16;;;21.07;58.12
12172;BME280;6149;52.418;13.668;2022-07-18T06:28:10;102043.22;;;21.38;56.24
12172;BME280;6149;52.418;13.668;2022-07-18T06:30:38;102050.03;;;21.66;58.78
12172;BME280;6149;52.418;13.668;2022-07-18T06:33:04;102048.97;;;21.91;54.14
12172;BME280;6149;52.418;13.668;2022-07-18T06:35:33;102057.75;;;22.06;54.16
12172;BME280;6149;52.418;13.668;2022-07-18T06:38:00;102051.16;;;22.32;51.94
12172;BME280;6149;52.418;13.668;2022-07-18T06:40:27;102057.66;;;22.52;54.43
12172;BME280;6149;52.418;13.668;2022-07-18T06:42:53;102055.34;;;22.58;50.68
12172;BME280;6149;52.418;13.668;2022-07-18T06:45:20;102057.91;;;22.82;52.65
12172;BME280;6149;52.418;13.668;2022-07-18T06:47:48;102059.22;;;22.99;49.58
12172;BME280;6149;52.418;13.668;2022-07-18T06:50:17;102060.34;;;23.28;50.21
12172;BME280;6149;52.418;13.668;2022-07-18T06:52:44;102066.28;;;23.54;51.50
12172;BME280;6149;52.418;13.668;2022-07-18T06:55:12;102060.97;;;23.64;49.94
12172;BME280;6149;52.418;13.668;2022-07-18T06:57:40;102070.19;;;23.82;48.72
12172;BME280;6149;52.418;13.668;2022-07-18T07:00:09;102060.50;;;24.00;46.73
12172;BME280;6149;52.418;13.668;2022-07-18T07:02:42;102065.16;;;24.19;46.70
12172;BME280;6149;52.418;13.668;2022-07-18T07:05:12;102066.69;;;24.33;47.50
12172;BME280;6149;52.418;13.668;2022-07-18T07:07:40;102063.91;;;24.44;46.02
12172;BME280;6149;52.418;13.668;2022-07-18T07:10:07;102065.75;;;24.53;44.86
12172;BME280;6149;52.418;13.668;2022-07-18T07:12:38;102066.66;;;24.63;42.49
12172;BME280;6149;52.418;13.668;2022-07-18T07:15:07;102063.56;;;24.68;42.19
12172;BME280;6149;52.418;13.668;2022-07-18T07:17:35;102065.63;;;24.85;42.29
12172;BME280;6149;52.418;13.668;2022-07-18T07:20:04;102063.09;;;25.03;43.47
12172;BME280;6149;52.418;13.668;2022-07-18T07:22:40;102057.16;;;25.19;43.21
12172;BME280;6149;52.418;13.668;2022-07-18T07:25:08;102056.88;;;25.22;41.66
12172;BME280;6149;52.418;13.668;2022-07-18T07:27:35;102053.72;;;25.26;41.22
12172;BME280;6149;52.418;13.668;2022-07-18T07:30:02;102047.88;;;25.31;39.86
12172;BME280;6149;52.418;13.668;2022-07-18T07:32:33;102040.03;;;25.47;40.63
12172;BME280;6149;52.418;13.668;2022-07-18T07:35:01;102042.63;;;25.58;40.52
12172;BME280;6149;52.418;13.668;2022-07-18T07:37:28;102039.34;;;25.64;39.16
12172;BME280;6149;52.418;13.668;2022-07-18T07:39:56;102047.19;;;25.68;39.61
12172;BME280;6149;52.418;13.668;2022-07-18T07:42:23;102040.59;;;25.80;39.45
12172;BME280;6149;52.418;13.668;2022-07-18T07:44:49;102040.59;;;25.80;38.42
12172;BME280;6149;52.418;13.668;2022-07-18T07:47:16;102042.53;;;26.07;38.32
12172;BME280;6149;52.418;13.668;2022-07-18T07:49:42;102033.00;;;26.40;37.93
12172;BME280;6149;52.418;13.668;2022-07-18T07:52:09;102031.22;;;26.30;36.89
12172;BME280;6149;52.418;13.668;2022-07-18T07:54:36;102029.84;;;26.44;38.41
12172;BME280;6149;52.418;13.668;2022-07-18T07:57:04;102024.25;;;26.55;38.59
12172;BME280;6149;52.418;13.668;2022-07-18T07:59:31;102017.09;;;26.54;36.69
12172;BME280;6149;52.418;13.668;2022-07-18T08:01:57;102020.25;;;26.50;37.17
12172;BME280;6149;52.418;13.668;2022-07-18T08:04:25;102016.91;;;26.66;37.85
12172;BME280;6149;52.418;13.668;2022-07-18T08:06:51;102025.13;;;26.74;39.08
12172;BME280;6149;52.418;13.668;2022-07-18T08:09:18;102023.66;;;26.79;37.94
12172;BME280;6149;52.418;13.668;2022-07-18T08:11:45;102015.00;;;26.93;36.97
12172;BME280;6149;52.418;13.668;2022-07-18T08:14:13;102005.03;;;27.12;36.64
12172;BME280;6149;52.418;13.668;2022-07-18T08:16:40;102014.03;;;27.30;37.15
12172;BME280;6149;52.418;13.668;2022-07-18T08:19:06;102022.41;;;27.37;35.62
12172;BME280;6149;52.418;13.668;2022-07-18T08:21:33;102013.19;;;27.47;35.87
12172;BME280;6149;52.418;13.668;2022-07-18T08:24:00;102015.09;;;27.55;36.48
12172;BME280;6149;52.418;13.668;2022-07-18T08:26:26;102022.72;;;27.69;35.66
12172;BME280;6149;52.418;13.668;2022-07-18T08:28:53;102018.59;;;27.65;34.84
12172;BME280;6149;52.418;13.668;2022-07-18T08:31:20;102029.47;;;27.65;36.27
12172;BME280;6149;52.418;13.668;2022-07-18T08:33:48;102018.81;;;27.54;35.29
12172;BME280;6149;52.418;13.668;2022-07-18T08:36:14;102024.50;;;27.60;33.91
12172;BME280;6149;52.418;13.668;2022-07-18T08:38:41;102025.72;;;27.84;34.25
12172;BME280;6149;52.418;13.668;2022-07-18T08:41:08;102010.56;;;28.07;34.75
12172;BME280;6149;52.418;13.668;2022-07-18T08:43:34;102030.28;;;28.09;33.76
12172;BME280;6149;52.418;13.668;2022-07-18T08:46:03;102023.84;;;28.10;35.12
12172;BME280;6149;52.418;13.668;2022-07-18T08:48:32;102025.66;;;28.27;33.83
12172;BME280;6149;52.418;13.668;2022-07-18T08:51:00;102020.31;;;28.18;34.21
12172;BME280;6149;52.418;13.668;2022-07-18T08:53:27;102018.56;;;28.09;36.64
12172;BME280;6149;52.418;13.668;2022-07-18T08:55:59;102018.72;;;27.81;33.15
12172;BME280;6149;52.418;13.668;2022-07-18T08:58:25;102028.50;;;27.56;34.31
12172;BME280;6149;52.418;13.668;2022-07-18T09:00:52;102028.50;;;27.56;33.91
12172;BME280;6149;52.418;13.668;2022-07-18T09:03:19;102019.78;;;27.45;35.10
12172;BME280;6149;52.418;13.668;2022-07-18T09:06:02;102020.16;;;27.32;35.73
12172;BME280;6149;52.418;13.668;2022-07-18T09:08:30;102013.50;;;27.44;34.24
12172;BME280;6149;52.418;13.668;2022-07-18T09:10:59;102013.06;;;27.57;34.90
12172;BME280;6149;52.418;13.668;2022-07-18T09:13:35;102013.44;;;27.80;34.31
12172;BME280;6149;52.418;13.668;2022-07-18T09:16:05;101998.84;;;27.81;34.42
12172;BME280;6149;52.418;13.668;2022-07-18T09:18:34;102016.56;;;27.67;33.98
12172;BME280;6149;52.418;13.668;2022-07-18T09:21:05;102009.75;;;27.45;34.76
12172;BME280;6149;52.418;13.668;2022-07-18T09:23:36;102009.22;;;27.42;34.58
12172;BME280;6149;52.418;13.668;2022-07-18T09:26:04;102015.56;;;27.50;36.92
12172;BME280;6149;52.418;13.668;2022-07-18T09:28:46;102013.84;;;27.49;34.33
12172;BME280;6149;52.418;13.668;2022-07-18T09:31:17;102013.31;;;27.63;33.57
12172;BME280;6149;52.418;13.668;2022-07-18T09:33:51;102015.50;;;27.60;33.72
12172;BME280;6149;52.418;13.668;2022-07-18T09:36:20;102010.75;;;27.62;33.78
12172;BME280;6149;52.418;13.668;2022-07-18T09:38:47;102008.56;;;27.66;35.93
12172;BME280;6149;52.418;13.668;2022-07-18T09:41:13;102014.50;;;27.87;34.35
12172;BME280;6149;52.418;13.668;2022-07-18T09:43:40;102009.53;;;28.08;34.70
12172;BME280;6149;52.418;13.668;2022-07-18T09:46:08;102021.06;;;28.28;32.64
12172;BME280;6149;52.418;13.668;2022-07-18T09:48:34;102009.94;;;28.47;34.59
12172;BME280;6149;52.418;13.668;2022-07-18T09:51:03;102000.31;;;28.77;33.66
12172;BME280;6149;52.418;13.668;2022-07-18T09:53:32;101995.56;;;28.79;32.76
12172;BME280;6149;52.418;13.668;2022-07-18T09:56:01;102004.50;;;29.06;31.42
12172;BME280;6149;52.418;13.668;2022-07-18T09:58:31;102012.31;;;29.09;32.04
12172;BME280;6149;52.418;13.668;2022-07-18T10:01:00;102010.28;;;29.11;31.59
12172;BME280;6149;52.418;13.668;2022-07-18T10:03:29;102001.59;;;29.15;33.95
12172;BME280;6149;52.418;13.668;2022-07-18T10:05:57;102000.94;;;29.38;31.29
12172;BME280;6149;52.418;13.668;2022-07-18T10:08:26;101991.94;;;29.62;30.99
12172;BME280;6149;52.418;13.668;2022-07-18T10:10:57;101999.94;;;29.47;30.50
12172;BME280;6149;52.418;13.668;2022-07-18T10:13:25;101997.03;;;29.56;30.76
12172;BME280;6149;52.418;13.668;2022-07-18T10:15:53;102000.28;;;29.52;32.07
12172;BME280;6149;52.418;13.668;2022-07-18T10:18:21;102000.41;;;29.83;31.71
12172;BME280;6149;52.418;13.668;2022-07-18T10:20:52;101999.94;;;29.55;30.48
12172;BME280;6149;52.418;13.668;2022-07-18T10:23:24;101993.13;;;29.43;33.35
12172;BME280;6149;52.418;13.668;2022-07-18T10:26:12;101989.53;;;29.18;32.09
12172;BME280;6149;52.418;13.668;2022-07-18T10:29:16;102001.75;;;29.06;31.53
12172;BME280;6149;52.418;13.668;2022-07-18T10:32:02;101998.88;;;29.07;30.67
12172;BME280;6149;52.418;13.668;2022-07-18T10:34:34;101994.59;;;28.97;31.88
12172;BME280;6149;52.418;13.668;2022-07-18T10:37:10;101997.81;;;28.84;31.03
12172;BME280;6149;52.418;13.668;2022-07-18T10:39:38;101990.84;;;28.98;30.91
12172;BME280;6149;52.418;13.668;2022-07-18T10:42:20;101997.50;;;28.87;31.37
12172;BME280;6149;52.418;13.668;2022-07-18T10:44:49;101992.47;;;28.74;32.60
12172;BME280;6149;52.418;13.668;2022-07-18T10:47:17;101988.53;;;28.69;32.61
12172;BME280;6149;52.418;13.668;2022-07-18T10:50:03;101990.09;;;28.71;32.09
12172;BME280;6149;52.418;13.668;2022-07-18T10:52:56;101983.94;;;28.53;34.27
12172;BME280;6149;52.418;13.668;2022-07-18T10:55:32;101988.91;;;28.74;33.27
12172;BME280;6149;52.418;13.668;2022-07-18T10:58:19;101982.59;;;28.57;32.06
12172;BME280;6149;52.418;13.668;2022-07-18T11:00:48;101974.91;;;28.60;32.50
12172;BME280;6149;52.418;13.668;2022-07-18T11:03:22;101965.72;;;28.61;33.42
12172;BME280;6149;52.418;13.668;2022-07-18T11:05:53;101981.91;;;28.71;32.95
12172;BME280;6149;52.418;13.668;2022-07-18T11:08:21;101976.13;;;28.66;34.76
12172;BME280;6149;52.418;13.668;2022-07-18T11:11:09;101971.84;;;28.63;32.05
12172;BME280;6149;52.418;13.668;2022-07-18T11:13:39;101971.66;;;28.49;32.41
12172;BME280;6149;52.418;13.668;2022-07-18T11:16:10;101960.75;;;28.41;33.38
12172;BME280;6149;52.418;13.668;2022-07-18T11:19:16;101972.31;;;28.43;32.02
12172;BME280;6149;52.418;13.668;2022-07-18T11:21:45;101964.50;;;28.48;31.36
12172;BME280;6149;52.418;13.668;2022-07-18T11:24:13;101966.16;;;28.33;34.67
12172;BME280;6149;52.418;13.668;2022-07-18T11:26:44;101954.38;;;28.24;33.33
12172;BME280;6149;52.418;13.668;2022-07-18T11:29:15;101952.53;;;28.33;33.99
12172;BME280;6149;52.418;13.668;2022-07-18T11:31:44;101950.25;;;28.54;32.92
12172;BME280;6149;52.418;13.668;2022-07-18T11:34:12;101941.31;;;28.36;32.44
12172;BME280;6149;52.418;13.668;2022-07-18T11:36:42;101943.53;;;28.32;32.94
12172;BME280;6149;52.418;13.668;2022-07-18T11:39:09;101937.34;;;28.22;32.18
12172;BME280;6149;52.418;13.668;2022-07-18T11:41:36;101935.28;;;28.16;33.09
12172;BME280;6149;52.418;13.668;2022-07-18T11:44:05;101930.34;;;28.11;34.79
12172;BME280;6149;52.418;13.668;2022-07-18T11:46:43;101930.03;;;27.88;32.59
12172;BME280;6149;52.418;13.668;2022-07-18T11:49:10;101930.56;;;27.84;33.01
12172;BME280;6149;52.418;13.668;2022-07-18T11:51:38;101919.91;;;27.99;34.68
12172;BME280;6149;52.418;13.668;2022-07-18T11:54:07;101921.75;;;27.98;32.75
12172;BME280;6149;52.418;13.668;2022-07-18T11:56:45;101916.31;;;27.98;32.91
12172;BME280;6149;52.418;13.668;2022-07-18T11:59:13;101906.47;;;27.97;34.10
12172;BME280;6149;52.418;13.668;2022-07-18T12:01:42;101910.75;;;28.08;33.42
12172;BME280;6149;52.418;13.668;2022-07-18T12:04:16;101904.25;;;28.01;34.32
12172;BME280;6149;52.418;13.668;2022-07-18T12:06:43;101909.00;;;27.99;33.95
12172;BME280;6149;52.418;13.668;2022-07-18T12:09:10;101907.88;;;28.09;33.95
12172;BME280;6149;52.418;13.668;2022-07-18T12:11:38;101900.69;;;28.00;33.40
12172;BME280;6149;52.418;13.668;2022-07-18T12:14:13;101904.97;;;28.03;33.81
12172;BME280;6149;52.418;13.668;2022-07-18T12:16:44;101908.03;;;28.08;32.98
12172;BME280;6149;52.418;13.668;2022-07-18T12:19:16;101900.09;;;28.14;33.25
12172;BME280;6149;52.418;13.668;2022-07-18T12:21:46;101897.88;;;28.18;33.12
12172;BME280;6149;52.418;13.668;2022-07-18T12:24:26;101895.53;;;28.23;32.91
12172;BME280;6149;52.418;13.668;2022-07-18T12:27:10;101889.63;;;28.36;33.16
12172;BME280;6149;52.418;13.668;2022-07-18T12:29:54;101893.34;;;28.35;32.11
12172;BME280;6149;52.418;13.668;2022-07-18T12:32:29;101896.25;;;28.33;32.99
12172;BME280;6149;52.418;13.668;2022-07-18T12:35:00;101886.59;;;28.47;31.80
12172;BME280;6149;52.418;13.668;2022-07-18T12:37:28;101886.28;;;28.66;32.15
12172;BME280;6149;52.418;13.668;2022-07-18T12:39:57;101885.41;;;28.66;33.22
12172;BME280;6149;52.418;13.668;2022-07-18T12:42:29;101883.38;;;28.59;32.25
12172;BME280;6149;52.418;13.668;2022-07-18T12:44:58;101877.75;;;28.61;31.42
12172;BME280;6149;52.418;13.668;2022-07-18T12:47:26;101883.41;;;28.76;32.58
12172;BME280;6149;52.418;13.668;2022-07-18T12:49:54;101870.00;;;28.82;30.58
12172;BME280;6149;52.418;13.668;2022-07-18T12:52:22;101875.09;;;28.85;31.47
12172;BME280;6149;52.418;13.668;2022-07-18T12:54:49;101874.56;;;28.98;32.55
12172;BME280;6149;52.418;13.668;2022-07-18T12:57:16;101872.53;;;28.84;30.28
12172;BME280;6149;52.418;13.668;2022-07-18T12:59:43;101875.91;;;28.70;30.29